»·PEaware :: AAL2 KLAS-KPHX

AAL2 :: KLAS-KPHX

FLIGHT INFORMATION

Flight Status: Arrived
Operator:
American Airlines
More flights by this operator :: More flights under this callsign
Pilot: Taylor M. (19061)
Aircraft: AIRBUS A320
(A320)
More flights by this aircraft type
Origin: KLAS McCarran Intl
United States
Destination: KPHX Phoenix Sky Harbor Intl
United States
More flights between these airports :: More routes between these airports
Route: +PRFUM4 PRFUM WOTRO BRUSR1
File this flight plan on PilotEdge
Remarks:
Altitude:
(Current/Filed)
28,000ft
Speed:
(Current/Filed)
440kts
Departed: 07-May-18 09:02 PM
Arrived: 07-May-18 09:47 PM
Distance/Time
Traveled:
222nm/0:45
Distance/Time
To Go:
Arrived

Flight Plot

Page will automatically refresh every two minutes.

Flight plan parsing failed; only flown route is shown


Map Options




Map Legend


Flown Route
Filed Route
Departure Airport
Arrival Airport
Navaid (VOR, NDB)
Fix

Horizontal Profiles

Position Reports

Time Latitude Longitude Heading Altitude Ground
Speed
07-May-18 20:32 36.082494 -115.153311 49 2115ft 0kts
07-May-18 20:33 36.082494 -115.153311 49 2115ft 0kts
07-May-18 20:34 36.082494 -115.153311 49 2115ft 0kts
07-May-18 20:35 36.082494 -115.153311 49 2115ft 0kts
07-May-18 20:36 36.082494 -115.153311 49 2115ft 0kts
07-May-18 20:37 36.082494 -115.153311 49 2115ft 0kts
07-May-18 20:38 36.082494 -115.153311 49 2115ft 0kts
07-May-18 20:39 36.082494 -115.153311 49 2115ft 0kts
07-May-18 20:40 36.082494 -115.153311 49 2115ft 0kts
07-May-18 20:41 36.082494 -115.153311 49 2115ft 0kts
07-May-18 20:42 36.082494 -115.153311 49 2115ft 0kts
07-May-18 20:43 36.082494 -115.153311 49 2115ft 0kts
07-May-18 20:44 36.082494 -115.153311 49 2115ft 0kts
07-May-18 20:45 36.082494 -115.153311 49 2115ft 0kts
07-May-18 20:46 36.082494 -115.153311 49 2115ft 0kts
07-May-18 20:47 36.082494 -115.153311 49 2115ft 0kts
07-May-18 20:48 36.082503 -115.153297 49 2115ft 0kts
07-May-18 20:49 36.082503 -115.153297 49 2115ft 0kts
07-May-18 20:50 36.082198 -115.153738 49 2118ft 0kts
07-May-18 20:51 36.082198 -115.153738 49 2118ft 0kts
07-May-18 20:52 36.082198 -115.153738 49 2118ft 0kts
07-May-18 20:53 36.082216 -115.153707 60 2118ft 0kts
07-May-18 20:54 36.080735 -115.154411 160 2123ft 14kts
07-May-18 20:55 36.077870 -115.148931 96 2109ft 27kts
07-May-18 20:56 36.077526 -115.140849 89 2084ft 20kts
07-May-18 20:57 36.077529 -115.130958 88 2055ft 36kts
07-May-18 20:58 36.077426 -115.126257 130 2044ft 0kts
07-May-18 20:58 36.077426 -115.126257 130 2044ft 0kts
07-May-18 21:00 36.077425 -115.126257 130 2044ft 0kts
07-May-18 21:00 36.076569 -115.126364 267 2046ft 19kts
07-May-18 21:01 36.076446 -115.167822 268 3027ft 170kts
07-May-18 21:02 36.076245 -115.228900 264 4953ft 212kts
07-May-18 21:03 36.021666 -115.278977 200 6425ft 290kts
07-May-18 21:04 35.944925 -115.291962 162 7396ft 295kts
07-May-18 21:05 35.872840 -115.258776 136 9934ft 303kts
07-May-18 21:06 35.840721 -115.156456 105 11329ft 354kts
07-May-18 21:07 35.824452 -115.030692 85 12445ft 395kts
07-May-18 21:08 35.834925 -114.893841 84 14190ft 411kts
07-May-18 21:09 35.845460 -114.751883 84 15934ft 423kts
07-May-18 21:10 35.851384 -114.606368 102 17512ft 434kts
07-May-18 21:11 35.792626 -114.478038 124 18956ft 441kts
07-May-18 21:12 35.725230 -114.351221 124 20307ft 451kts
07-May-18 21:13 35.658243 -114.225513 124 21513ft 460kts
07-May-18 21:14 35.587606 -114.093368 124 22633ft 470kts
07-May-18 21:15 35.515564 -113.959318 124 23664ft 478kts
07-May-18 21:17 35.436554 -113.826893 127 24627ft 486kts
07-May-18 21:18 35.362036 -113.704169 127 25449ft 493kts
07-May-18 21:19 35.279561 -113.568838 127 26285ft 500kts
07-May-18 21:20 35.196653 -113.433299 127 27426ft 498kts
07-May-18 21:21 35.117306 -113.303947 127 28474ft 498kts
07-May-18 21:22 35.034817 -113.170300 127 29204ft 497kts
07-May-18 21:23 34.952771 -113.037425 127 29262ft 496kts
07-May-18 21:24 34.875864 -112.913596 127 29260ft 493kts
07-May-18 21:25 34.793904 -112.782087 127 29249ft 490kts
07-May-18 21:26 34.711959 -112.651189 127 28268ft 496kts
07-May-18 21:27 34.628810 -112.518767 128 25270ft 496kts
07-May-18 21:28 34.546386 -112.387938 128 22716ft 483kts
07-May-18 21:29 34.472049 -112.270285 128 21885ft 435kts
07-May-18 21:30 34.375542 -112.211438 170 20980ft 380kts
07-May-18 21:31 34.274637 -112.185534 170 19207ft 368kts
07-May-18 21:32 34.176214 -112.160294 170 17393ft 358kts
07-May-18 21:33 34.082117 -112.135212 165 16154ft 333kts
07-May-18 21:34 33.996670 -112.100532 163 14677ft 323kts
07-May-18 21:35 33.914103 -112.066946 163 12197ft 310kts
07-May-18 21:36 33.838130 -112.036112 162 10527ft 301kts
07-May-18 21:37 33.760976 -112.004791 162 9222ft 292kts
07-May-18 21:38 33.686873 -111.974622 162 8746ft 280kts
07-May-18 21:39 33.617325 -111.946434 161 7955ft 261kts
07-May-18 21:40 33.550375 -111.919373 160 7172ft 254kts
07-May-18 21:41 33.526768 -111.847543 96 6242ft 256kts
07-May-18 21:42 33.479939 -111.789408 133 5141ft 251kts
07-May-18 21:43 33.428591 -111.800584 264 4412ft 240kts
07-May-18 21:44 33.442913 -111.872776 268 3049ft 212kts
07-May-18 21:45 33.441506 -111.931501 269 2240ft 152kts
07-May-18 21:46 33.440995 -111.981024 270 1384ft 150kts
07-May-18 21:47 33.440925 -112.012321 266 1128ft 9kts
07-May-18 21:48 33.440628 -112.013647 200 1127ft 5kts
07-May-18 21:49 33.438987 -112.015689 268 1125ft 9kts
07-May-18 21:50 33.438964 -112.019305 243 1121ft 9kts
07-May-18 21:51 33.438951 -112.017917 87 1122ft 8kts
07-May-18 21:52 33.439022 -112.013776 88 1127ft 16kts
07-May-18 21:53 33.438153 -112.009909 121 1128ft 6kts

Navigation Log

Ident Type
Flight plan parsing failed, navigation log unavailable